createdAt,value
2018-10-21T00:00:24.867Z,27.02
2018-10-21T00:02:53.140Z,26.63
2018-10-21T00:05:21.431Z,27.50
2018-10-21T00:07:49.693Z,28.50
2018-10-21T00:10:17.973Z,25.60
2018-10-21T00:12:46.306Z,26.68
2018-10-21T00:15:14.670Z,27.40
2018-10-21T00:17:42.846Z,27.17
2018-10-21T00:20:11.151Z,23.67
2018-10-21T00:22:39.431Z,23.65
2018-10-21T00:25:07.890Z,26.12
2018-10-21T00:27:36.152Z,22.98
2018-10-21T00:30:04.406Z,29.65
2018-10-21T00:32:49.199Z,20.27
2018-10-21T00:35:17.753Z,27.32
2018-10-21T00:37:46.084Z,25.10
2018-10-21T00:40:14.358Z,22.50
2018-10-21T00:42:42.656Z,21.90
2018-10-21T00:45:11.676Z,29.85
2018-10-21T00:47:40.066Z,24.07
2018-10-21T00:50:09.781Z,25.82
2018-10-21T00:52:38.056Z,24.77
2018-10-21T00:55:07.136Z,24.70
2018-10-21T00:57:35.438Z,26.50
2018-10-21T01:00:03.752Z,25.12
2018-10-21T01:02:32.039Z,20.75
2018-10-21T01:05:00.304Z,21.20
2018-10-21T01:07:28.571Z,23.10
2018-10-21T01:09:56.843Z,24.43
2018-10-21T01:12:25.088Z,20.55
2018-10-21T01:14:53.440Z,25.27
2018-10-21T01:17:21.676Z,23.47
2018-10-21T01:19:49.952Z,27.02
2018-10-21T01:22:18.232Z,23.80
2018-10-21T01:24:46.526Z,20.95
2018-10-21T01:27:14.894Z,24.20
2018-10-21T01:29:46.872Z,20.92
2018-10-21T01:32:16.621Z,23.52
2018-10-21T01:34:44.894Z,24.17
2018-10-21T01:37:13.394Z,27.22
2018-10-21T01:40:49.038Z,24.67
2018-10-21T01:43:18.434Z,26.37
2018-10-21T01:45:46.924Z,24.57
2018-10-21T01:48:16.439Z,25.68
2018-10-21T01:50:44.700Z,23.67
2018-10-21T01:53:13.882Z,22.50
2018-10-21T01:55:42.230Z,21.87
2018-10-21T01:58:10.519Z,24.82
2018-10-21T02:00:39.457Z,21.60
2018-10-21T02:03:07.836Z,23.55
2018-10-21T02:05:36.646Z,22.93
2018-10-21T02:08:05.019Z,21.30
2018-10-21T02:10:33.292Z,25.53
2018-10-21T02:13:01.565Z,21.27
2018-10-21T02:15:29.842Z,19.17
2018-10-21T02:17:58.136Z,20.55
2018-10-21T02:20:26.777Z,22.45
2018-10-21T02:22:55.059Z,19.70
2018-10-21T02:25:23.318Z,19.90
2018-10-21T02:27:52.318Z,18.57
2018-10-21T02:30:23.712Z,20.85
2018-10-21T02:32:52.574Z,21.87
2018-10-21T02:35:21.311Z,17.85
2018-10-21T02:37:50.045Z,21.17
2018-10-21T02:41:35.676Z,21.10
2018-10-21T02:44:04.658Z,21.17
2018-10-21T02:46:33.534Z,17.37
2018-10-21T02:49:02.503Z,18.02
2018-10-21T02:51:30.806Z,22.22
2018-10-21T02:53:59.088Z,20.17
2018-10-21T02:56:27.385Z,18.73
2018-10-21T02:58:55.646Z,19.32
2018-10-21T03:01:23.942Z,21.70
2018-10-21T03:03:52.275Z,18.85
2018-10-21T03:06:20.587Z,21.23
2018-10-21T03:08:48.870Z,25.13
2018-10-21T03:11:17.156Z,22.45
2018-10-21T03:13:45.436Z,24.10
2018-10-21T03:16:13.724Z,24.07
2018-10-21T03:18:42.000Z,20.97
2018-10-21T03:21:10.341Z,20.85
2018-10-21T03:23:38.542Z,21.10
2018-10-21T03:26:06.815Z,18.20
2018-10-21T03:28:35.256Z,21.00
2018-10-21T03:31:03.696Z,19.87
2018-10-21T03:33:32.404Z,19.47
2018-10-21T03:36:00.775Z,21.00
2018-10-21T03:38:29.103Z,16.90
2018-10-21T03:40:57.565Z,16.95
2018-10-21T03:43:25.862Z,19.35
2018-10-21T03:45:54.156Z,20.20
2018-10-21T03:48:22.475Z,18.93
2018-10-21T03:50:50.812Z,18.42
2018-10-21T03:53:19.039Z,19.67
2018-10-21T03:55:47.327Z,20.02
2018-10-21T03:58:15.688Z,17.67
2018-10-21T04:00:43.899Z,19.07
2018-10-21T04:03:12.162Z,18.77
2018-10-21T04:05:40.468Z,15.50
2018-10-21T04:08:08.739Z,16.75
2018-10-21T04:10:37.007Z,18.75
2018-10-21T04:13:05.590Z,19.00
2018-10-21T04:15:33.890Z,15.93
2018-10-21T04:18:02.272Z,17.30
2018-10-21T04:20:30.542Z,18.15
2018-10-21T04:23:02.849Z,22.23
2018-10-21T04:25:32.351Z,21.93
2018-10-21T04:28:01.582Z,19.52
2018-10-21T04:30:31.241Z,18.77
2018-10-21T04:33:04.034Z,16.07
2018-10-21T04:35:33.276Z,19.05
2018-10-21T04:40:17.822Z,20.37
2018-10-21T04:42:46.574Z,17.45
2018-10-21T04:45:19.170Z,18.80
2018-10-21T04:47:47.428Z,17.95
2018-10-21T04:50:15.702Z,17.73
2018-10-21T04:52:44.007Z,18.65
2018-10-21T04:55:16.862Z,17.55
2018-10-21T04:57:46.392Z,16.55
2018-10-21T05:00:17.823Z,21.85
2018-10-21T05:02:46.123Z,19.10
2018-10-21T05:05:14.995Z,19.85
2018-10-21T05:07:43.411Z,16.33
2018-10-21T05:10:24.543Z,19.07
2018-10-21T05:12:52.816Z,18.32
2018-10-21T05:15:21.837Z,25.68
2018-10-21T05:17:50.174Z,22.67
2018-10-21T05:20:18.447Z,27.17
2018-10-21T05:22:46.712Z,21.53
2018-10-21T05:25:15.088Z,19.65
2018-10-21T05:27:43.566Z,19.23
2018-10-21T05:30:12.794Z,18.37
2018-10-21T05:32:41.417Z,17.53
2018-10-21T05:35:11.206Z,17.37
2018-10-21T05:37:39.900Z,18.23
2018-10-21T05:40:10.711Z,18.05
2018-10-21T05:42:38.907Z,20.25
2018-10-21T05:45:07.580Z,15.20
2018-10-21T05:47:36.462Z,16.07
2018-10-21T05:50:04.946Z,19.70
2018-10-21T05:52:33.270Z,18.50
2018-10-21T05:55:01.559Z,17.37
2018-10-21T05:57:29.964Z,16.53
2018-10-21T05:59:58.214Z,22.60
2018-10-21T06:02:26.492Z,18.70
2018-10-21T06:04:55.239Z,18.17
2018-10-21T06:07:24.027Z,19.42
2018-10-21T06:09:52.302Z,22.50
2018-10-21T06:12:20.684Z,23.73
2018-10-21T06:14:50.170Z,22.32
2018-10-21T06:17:29.099Z,20.57
2018-10-21T06:20:02.834Z,28.80
2018-10-21T06:22:36.155Z,41.55
2018-10-21T06:25:04.438Z,35.33
2018-10-21T06:27:32.699Z,28.13
2018-10-21T06:30:01.016Z,29.45
2018-10-21T06:32:29.296Z,25.90
2018-10-21T06:34:57.600Z,25.15
2018-10-21T06:37:25.893Z,21.10
2018-10-21T06:39:54.163Z,22.80
2018-10-21T06:42:22.434Z,21.55
2018-10-21T06:44:50.707Z,24.92
2018-10-21T06:47:18.963Z,22.30
2018-10-21T06:49:47.272Z,21.57
2018-10-21T06:52:15.547Z,23.33
2018-10-21T06:54:43.831Z,26.10
2018-10-21T06:57:12.300Z,28.85
2018-10-21T06:59:40.399Z,24.00
2018-10-21T07:02:08.691Z,22.90
2018-10-21T07:04:37.042Z,22.95
2018-10-21T07:07:05.308Z,22.90
2018-10-21T07:09:33.602Z,21.40
2018-10-21T07:12:01.891Z,23.95
2018-10-21T07:14:30.160Z,24.82
2018-10-21T07:16:58.435Z,21.63
2018-10-21T07:19:26.704Z,24.05
2018-10-21T07:21:56.087Z,25.48
2018-10-21T07:24:24.362Z,24.82
2018-10-21T07:26:52.666Z,29.37
2018-10-21T07:29:20.992Z,34.10
2018-10-21T07:31:49.410Z,35.48
2018-10-21T07:34:17.777Z,29.20
2018-10-21T07:36:45.985Z,28.17
2018-10-21T07:39:14.256Z,31.57
2018-10-21T07:41:42.522Z,29.42
2018-10-21T07:44:10.790Z,27.37
2018-10-21T07:46:39.066Z,24.43
2018-10-21T07:49:07.426Z,26.90
2018-10-21T07:51:35.630Z,28.30
2018-10-21T07:54:03.916Z,28.10
2018-10-21T07:56:32.187Z,28.92
2018-10-21T07:59:00.469Z,26.80
2018-10-21T08:01:28.923Z,30.35
2018-10-21T08:03:57.134Z,27.42
2018-10-21T08:06:37.630Z,31.80
2018-10-21T08:09:08.439Z,27.77
2018-10-21T08:11:36.836Z,28.27
2018-10-21T08:14:05.140Z,32.17
2018-10-21T08:16:33.420Z,26.40
2018-10-21T08:19:01.658Z,30.23
2018-10-21T08:21:29.943Z,31.73
2018-10-21T08:23:58.275Z,33.20
2018-10-21T08:26:26.562Z,27.35
2018-10-21T08:28:54.870Z,33.38
2018-10-21T08:31:23.143Z,28.10
2018-10-21T08:33:51.415Z,31.02
2018-10-21T08:36:19.718Z,27.93
2018-10-21T08:38:48.006Z,26.40
2018-10-21T08:41:16.299Z,24.52
2018-10-21T08:43:44.567Z,26.55
2018-10-21T08:46:12.903Z,29.50
2018-10-21T08:48:43.954Z,32.93
2018-10-21T08:51:12.263Z,26.42
2018-10-21T08:53:40.619Z,32.45
2018-10-21T08:56:09.223Z,29.03
2018-10-21T08:58:37.505Z,32.83
2018-10-21T09:01:05.838Z,27.35
2018-10-21T09:03:34.089Z,27.60
2018-10-21T09:06:02.446Z,31.17
2018-10-21T09:08:30.734Z,30.33
2018-10-21T09:10:59.007Z,30.50
2018-10-21T09:13:27.304Z,30.52
2018-10-21T09:15:55.620Z,28.67
2018-10-21T09:18:24.257Z,30.55
2018-10-21T09:20:52.542Z,29.30
2018-10-21T09:23:20.783Z,29.07
2018-10-21T09:25:49.061Z,26.97
2018-10-21T09:28:17.360Z,28.55
2018-10-21T09:30:45.690Z,38.25
2018-10-21T09:33:14.010Z,31.12
2018-10-21T09:35:42.272Z,30.85
2018-10-21T09:38:10.556Z,30.50
2018-10-21T09:40:38.852Z,36.28
2018-10-21T09:43:07.208Z,33.93
2018-10-21T09:45:35.486Z,27.25
2018-10-21T09:48:03.760Z,26.33
2018-10-21T09:50:32.062Z,25.65
2018-10-21T09:53:00.374Z,33.13
2018-10-21T09:55:28.653Z,29.50
2018-10-21T09:57:56.963Z,26.68
2018-10-21T10:00:30.562Z,25.65
2018-10-21T10:03:04.836Z,24.37
2018-10-21T10:05:33.119Z,29.00
2018-10-21T10:08:01.399Z,30.97
2018-10-21T10:10:29.672Z,28.95
2018-10-21T10:12:57.957Z,25.35
2018-10-21T10:15:26.275Z,26.27
2018-10-21T10:17:54.548Z,28.03
2018-10-21T10:20:23.019Z,30.27
2018-10-21T10:22:51.404Z,28.25
2018-10-21T10:25:19.783Z,29.90
2018-10-21T10:27:47.999Z,28.90
2018-10-21T10:30:16.316Z,29.65
2018-10-21T10:32:44.864Z,28.38
2018-10-21T10:35:14.072Z,27.42
2018-10-21T10:37:42.578Z,23.18
2018-10-21T10:40:12.117Z,27.50
2018-10-21T10:42:40.487Z,22.48
2018-10-21T10:45:08.923Z,24.23
2018-10-21T10:47:37.607Z,27.15
2018-10-21T10:50:07.083Z,25.08
2018-10-21T10:52:35.472Z,21.50
2018-10-21T10:55:03.860Z,20.88
2018-10-21T10:57:32.103Z,22.27
2018-10-21T11:00:00.556Z,25.43
2018-10-21T11:02:28.812Z,21.33
2018-10-21T11:04:57.380Z,23.92
2018-10-21T11:07:25.655Z,20.00
2018-10-21T11:09:53.954Z,17.65
2018-10-21T11:12:22.486Z,18.40
2018-10-21T11:14:50.755Z,23.32
2018-10-21T11:17:19.015Z,15.40
2018-10-21T11:19:47.307Z,17.52
2018-10-21T11:22:15.655Z,13.93
2018-10-21T11:24:47.088Z,14.07
2018-10-21T11:27:16.270Z,16.20
2018-10-21T11:29:44.947Z,16.97
2018-10-21T11:32:13.191Z,17.50
2018-10-21T11:34:41.451Z,17.43
2018-10-21T11:37:10.351Z,14.20
2018-10-21T11:39:38.876Z,15.15
2018-10-21T11:42:07.871Z,14.80
2018-10-21T11:44:36.138Z,14.85
2018-10-21T11:47:05.415Z,18.17
2018-10-21T11:49:33.803Z,14.40
2018-10-21T11:52:02.163Z,13.40
2018-10-21T11:54:30.447Z,16.70
2018-10-21T11:56:58.696Z,13.87
2018-10-21T11:59:27.006Z,15.53
2018-10-21T12:01:55.618Z,14.70
2018-10-21T12:04:23.888Z,15.55
2018-10-21T12:06:52.195Z,19.10
2018-10-21T12:09:20.470Z,17.20
2018-10-21T12:11:49.287Z,11.78
2018-10-21T12:14:17.547Z,16.53
2018-10-21T12:16:45.847Z,13.93
2018-10-21T12:19:14.228Z,13.83
2018-10-21T12:21:42.394Z,9.68
2018-10-21T12:24:10.682Z,11.45
2018-10-21T12:26:38.967Z,13.22
2018-10-21T12:29:07.308Z,13.48
2018-10-21T12:31:35.819Z,11.38
2018-10-21T12:34:04.403Z,10.38
2018-10-21T12:36:32.796Z,10.15
2018-10-21T12:39:01.060Z,9.70
2018-10-21T12:41:29.425Z,8.63
2018-10-21T12:43:57.727Z,8.70
2018-10-21T12:46:25.970Z,8.15
2018-10-21T12:48:54.289Z,9.43
2018-10-21T12:51:22.597Z,10.13
2018-10-21T12:53:50.877Z,9.50
2018-10-21T12:56:19.164Z,8.00
2018-10-21T12:58:47.460Z,6.92
2018-10-21T13:01:15.859Z,7.35
2018-10-21T13:03:44.012Z,8.63
2018-10-21T13:06:12.277Z,9.73
2018-10-21T13:08:40.732Z,9.03
2018-10-21T13:11:09.086Z,11.80
2018-10-21T13:13:37.868Z,8.90
2018-10-21T13:16:06.363Z,9.85
2018-10-21T13:18:34.579Z,9.68
2018-10-21T13:21:02.914Z,7.85
2018-10-21T13:23:31.208Z,8.98
2018-10-21T13:25:59.501Z,8.05
2018-10-21T13:28:27.945Z,7.70
2018-10-21T13:30:56.127Z,7.72
2018-10-21T13:33:24.364Z,9.13
2018-10-21T13:35:52.640Z,8.33
2018-10-21T13:38:20.905Z,8.63
2018-10-21T13:40:49.175Z,7.85
2018-10-21T13:43:17.526Z,8.48
2018-10-21T13:45:45.797Z,8.78
2018-10-21T13:48:14.046Z,8.70
2018-10-21T13:50:42.357Z,5.95
2018-10-21T13:53:10.677Z,6.67
2018-10-21T13:55:38.912Z,6.58
2018-10-21T13:58:07.197Z,8.28
2018-10-21T14:00:35.578Z,10.07
2018-10-21T14:03:03.817Z,8.10
2018-10-21T14:05:32.080Z,12.53
2018-10-21T14:08:00.374Z,8.20
2018-10-21T14:10:28.622Z,10.53
2018-10-21T14:12:56.891Z,5.75
2018-10-21T14:15:25.270Z,8.65
2018-10-21T14:17:53.472Z,9.70
2018-10-21T14:20:22.087Z,6.33
2018-10-21T14:22:50.366Z,12.15
2018-10-21T14:25:18.639Z,6.12
2018-10-21T14:27:47.003Z,11.90
2018-10-21T14:30:15.319Z,6.92
2018-10-21T14:32:43.520Z,6.10
2018-10-21T14:35:11.787Z,7.50
2018-10-21T14:37:40.126Z,7.62
2018-10-21T14:40:10.700Z,6.17
2018-10-21T14:42:39.081Z,6.30
2018-10-21T14:45:08.663Z,10.67
2018-10-21T14:47:37.292Z,5.95
2018-10-21T14:50:05.718Z,7.25
2018-10-21T14:52:34.019Z,7.60
2018-10-21T14:55:02.337Z,6.78
2018-10-21T14:57:30.538Z,7.35
2018-10-21T14:59:58.847Z,9.75
2018-10-21T15:02:27.231Z,7.50
2018-10-21T15:04:55.487Z,9.77
2018-10-21T15:07:23.771Z,8.80
2018-10-21T15:09:52.700Z,14.33
2018-10-21T15:12:21.039Z,6.50
2018-10-21T15:14:49.344Z,12.03
2018-10-21T15:17:17.630Z,11.43
2018-10-21T15:19:45.937Z,8.63
2018-10-21T15:22:14.225Z,6.83
2018-10-21T15:24:42.508Z,8.10
2018-10-21T15:27:10.810Z,7.70
2018-10-21T15:29:39.098Z,9.27
2018-10-21T15:32:07.526Z,9.05
2018-10-21T15:34:35.790Z,8.85
2018-10-21T15:37:04.072Z,7.15
2018-10-21T15:39:32.345Z,7.75
2018-10-21T15:42:00.636Z,6.53
2018-10-21T15:44:28.948Z,8.25
2018-10-21T15:46:57.231Z,8.28
2018-10-21T15:49:25.515Z,10.13
2018-10-21T15:51:53.902Z,7.08
2018-10-21T15:54:22.174Z,11.53
2018-10-21T15:56:50.528Z,5.47
2018-10-21T15:59:18.799Z,8.45
2018-10-21T16:01:47.082Z,7.45
2018-10-21T16:04:15.469Z,7.73
2018-10-21T16:06:43.998Z,9.00
2018-10-21T16:09:13.678Z,11.20
2018-10-21T16:11:42.175Z,9.00
2018-10-21T16:14:10.568Z,4.90
2018-10-21T16:16:38.757Z,8.60
2018-10-21T16:19:07.293Z,7.60
2018-10-21T16:21:35.604Z,11.55
2018-10-21T16:24:03.904Z,7.97
2018-10-21T16:26:32.205Z,8.15
2018-10-21T16:29:00.461Z,8.70
2018-10-21T16:31:28.772Z,10.50
2018-10-21T16:33:57.059Z,11.53
2018-10-21T16:36:25.380Z,20.27
2018-10-21T16:38:53.652Z,21.15
2018-10-21T16:41:26.112Z,13.65
2018-10-21T16:43:54.512Z,20.05
2018-10-21T16:46:22.915Z,16.85
2018-10-21T16:48:51.311Z,19.20
2018-10-21T16:51:19.641Z,19.12
2018-10-21T16:53:47.912Z,15.93
2018-10-21T16:56:16.175Z,14.17
2018-10-21T16:58:44.451Z,14.30
2018-10-21T17:01:12.874Z,15.40
2018-10-21T17:03:41.158Z,15.05
2018-10-21T17:06:09.404Z,10.43
2018-10-21T17:08:37.640Z,12.80
2018-10-21T17:11:06.192Z,14.90
2018-10-21T17:13:34.456Z,13.72
2018-10-21T17:16:03.063Z,18.55
2018-10-21T17:18:31.228Z,13.60
2018-10-21T17:20:59.506Z,14.20
2018-10-21T17:23:27.777Z,17.15
2018-10-21T17:25:56.086Z,14.83
2018-10-21T17:28:24.379Z,15.95
2018-10-21T17:30:52.650Z,15.93
2018-10-21T17:33:20.936Z,18.45
2018-10-21T17:35:49.244Z,20.50
2018-10-21T17:38:17.531Z,18.52
2018-10-21T17:40:45.939Z,18.62
2018-10-21T17:43:14.221Z,15.63
2018-10-21T17:45:42.445Z,17.77
2018-10-21T17:48:10.719Z,18.43
2018-10-21T17:50:38.991Z,18.52
2018-10-21T17:53:07.304Z,18.65
2018-10-21T17:55:35.571Z,23.07
2018-10-21T17:58:03.847Z,17.23
2018-10-21T18:00:32.195Z,22.50
2018-10-21T18:03:00.517Z,21.50
2018-10-21T18:05:28.802Z,19.02
2018-10-21T18:07:57.146Z,19.70
2018-10-21T18:10:25.415Z,17.92
2018-10-21T18:12:53.692Z,18.33
2018-10-21T18:15:21.977Z,24.35
2018-10-21T18:17:50.276Z,22.07
2018-10-21T18:20:18.601Z,20.02
2018-10-21T18:22:46.912Z,20.52
2018-10-21T18:25:15.280Z,19.23
2018-10-21T18:27:43.520Z,20.70
2018-10-21T18:30:12.705Z,16.48
2018-10-21T18:32:41.070Z,16.85
2018-10-21T18:35:11.299Z,15.00
2018-10-21T18:37:39.578Z,16.55
2018-10-21T18:40:08.877Z,16.27
2018-10-21T18:42:37.149Z,21.10
2018-10-21T18:45:06.924Z,18.42
2018-10-21T18:47:35.207Z,15.28
2018-10-21T18:50:03.509Z,15.80
2018-10-21T18:52:31.769Z,22.42
2018-10-21T18:55:00.099Z,18.65
2018-10-21T18:57:28.400Z,21.55
2018-10-21T18:59:56.690Z,23.10
2018-10-21T19:02:24.946Z,29.90
2018-10-21T19:04:53.272Z,23.07
2018-10-21T19:07:21.552Z,22.85
2018-10-21T19:09:49.847Z,24.02
2018-10-21T19:12:18.175Z,18.20
2018-10-21T19:14:46.471Z,15.13
2018-10-21T19:17:14.756Z,19.55
2018-10-21T19:19:43.081Z,18.37
2018-10-21T19:22:11.362Z,16.20
2018-10-21T19:24:39.627Z,12.93
2018-10-21T19:27:08.001Z,13.13
2018-10-21T19:29:36.230Z,17.50
2018-10-21T19:32:04.517Z,22.15
2018-10-21T19:34:32.765Z,21.97
2018-10-21T19:37:01.031Z,21.77
2018-10-21T19:39:29.286Z,18.23
2018-10-21T19:41:57.539Z,20.55
2018-10-21T19:44:25.805Z,19.30
2018-10-21T19:46:54.073Z,18.77
2018-10-21T19:49:22.635Z,14.75
2018-10-21T19:51:50.917Z,13.72
2018-10-21T19:54:19.221Z,21.10
2018-10-21T19:56:47.492Z,15.40
2018-10-21T19:59:15.790Z,15.90
2018-10-21T20:01:44.072Z,15.80
2018-10-21T20:04:12.470Z,16.00
2018-10-21T20:06:40.700Z,18.12
2018-10-21T20:09:10.316Z,16.12
2018-10-21T20:11:39.386Z,20.35
2018-10-21T20:14:07.666Z,17.52
2018-10-21T20:16:35.947Z,21.17
2018-10-21T20:19:04.735Z,16.97
2018-10-21T20:21:32.964Z,15.70
2018-10-21T20:24:01.308Z,22.27
2018-10-21T20:26:29.544Z,22.80
2018-10-21T20:28:57.823Z,22.10
2018-10-21T20:31:26.194Z,28.42
2018-10-21T20:33:54.542Z,30.92
2018-10-21T20:36:22.834Z,26.73
2018-10-21T20:38:51.110Z,25.43
2018-10-21T20:41:19.367Z,29.00
2018-10-21T20:43:47.663Z,26.07
2018-10-21T20:46:15.995Z,28.50
2018-10-21T20:48:44.279Z,25.20
2018-10-21T20:51:12.642Z,24.90
2018-10-21T20:53:40.959Z,19.50
2018-10-21T20:56:09.227Z,23.98
2018-10-21T20:58:37.504Z,25.10
2018-10-21T21:01:06.123Z,17.12
2018-10-21T21:03:34.431Z,24.15
2018-10-21T21:06:02.832Z,20.13
2018-10-21T21:08:31.050Z,18.55
2018-10-21T21:10:59.397Z,23.10
2018-10-21T21:13:27.676Z,19.48
2018-10-21T21:15:55.966Z,20.08
2018-10-21T21:18:24.237Z,18.80
2018-10-21T21:20:52.482Z,18.60
2018-10-21T21:23:20.746Z,20.45
2018-10-21T21:25:49.064Z,19.75
2018-10-21T21:28:17.342Z,19.10
2018-10-21T21:30:45.834Z,15.93
2018-10-21T21:33:14.021Z,19.60
2018-10-21T21:35:42.525Z,16.80
2018-10-21T21:38:10.831Z,19.70
2018-10-21T21:40:39.139Z,20.15
2018-10-21T21:43:07.635Z,18.48
2018-10-21T21:45:35.899Z,17.05
2018-10-21T21:48:04.303Z,22.02
2018-10-21T21:50:32.520Z,22.82
2018-10-21T21:53:00.794Z,22.42
2018-10-21T21:55:29.030Z,21.10
2018-10-21T21:57:57.343Z,22.57
2018-10-21T22:00:25.604Z,22.70
2018-10-21T22:02:53.887Z,19.82
2018-10-21T22:05:22.184Z,18.98
2018-10-21T22:07:50.478Z,18.67
2018-10-21T22:10:18.822Z,19.37
2018-10-21T22:12:47.062Z,20.12
2018-10-21T22:15:15.331Z,26.15
2018-10-21T22:17:43.602Z,22.35
2018-10-21T22:20:13.023Z,24.57
2018-10-21T22:22:41.471Z,22.07
2018-10-21T22:25:10.013Z,19.30
2018-10-21T22:27:38.291Z,18.60
2018-10-21T22:30:07.867Z,21.27
2018-10-21T22:32:36.266Z,21.02
2018-10-21T22:35:04.907Z,22.48
2018-10-21T22:37:33.203Z,22.48
2018-10-21T22:40:01.486Z,24.82
2018-10-21T22:42:29.787Z,17.92
2018-10-21T22:44:58.075Z,25.20
2018-10-21T22:47:26.340Z,20.35
2018-10-21T22:49:54.627Z,18.75
2018-10-21T22:52:22.868Z,19.50
2018-10-21T22:54:51.176Z,18.23
2018-10-21T22:57:20.251Z,17.23
2018-10-21T22:59:49.768Z,16.52
2018-10-21T23:02:18.095Z,20.92
2018-10-21T23:04:47.054Z,26.90
2018-10-21T23:07:15.377Z,25.80
2018-10-21T23:09:43.643Z,25.52
2018-10-21T23:12:11.941Z,36.17
2018-10-21T23:14:40.178Z,34.10
2018-10-21T23:17:08.496Z,40.98
2018-10-21T23:19:46.571Z,38.92
2018-10-21T23:22:15.040Z,30.55
2018-10-21T23:24:43.280Z,25.43
2018-10-21T23:27:12.276Z,30.52
2018-10-21T23:29:41.088Z,44.95
2018-10-21T23:32:09.355Z,35.55
2018-10-21T23:34:37.650Z,27.82
2018-10-21T23:37:05.962Z,25.30
2018-10-21T23:39:34.225Z,23.47
2018-10-21T23:42:02.687Z,23.00
2018-10-21T23:44:31.259Z,19.67
2018-10-21T23:46:59.511Z,20.48
2018-10-21T23:49:27.784Z,18.57
2018-10-21T23:51:56.121Z,20.68
2018-10-21T23:54:24.354Z,22.45
2018-10-21T23:56:52.681Z,22.17
2018-10-21T23:59:20.984Z,24.77
